createdAt,value
2019-06-01T00:00:12.237Z,14.91
2019-06-01T00:01:49.241Z,14.93
2019-06-01T00:03:25.491Z,14.81
2019-06-01T00:05:00.810Z,14.75
2019-06-01T00:06:35.657Z,14.69
2019-06-01T00:08:12.036Z,14.69
2019-06-01T00:09:47.222Z,14.67
2019-06-01T00:11:22.609Z,14.71
2019-06-01T00:12:57.254Z,14.68
2019-06-01T00:14:32.499Z,14.63
2019-06-01T00:16:07.133Z,14.63
2019-06-01T00:17:42.399Z,14.62
2019-06-01T00:19:17.013Z,14.67
2019-06-01T00:20:52.748Z,14.62
2019-06-01T00:22:27.464Z,14.65
2019-06-01T00:24:02.723Z,14.65
2019-06-01T00:25:37.346Z,14.65
2019-06-01T00:27:12.589Z,14.49
2019-06-01T00:28:47.886Z,14.54
2019-06-01T00:30:27.057Z,14.57
2019-06-01T00:32:00.746Z,14.62
2019-06-01T00:33:36.019Z,14.65
2019-06-01T00:35:10.651Z,14.55
2019-06-01T00:36:45.879Z,14.56
2019-06-01T00:38:20.520Z,14.57
2019-06-01T00:39:55.856Z,14.47
2019-06-01T00:41:30.747Z,14.47
2019-06-01T00:43:06.030Z,14.51
2019-06-01T00:44:40.664Z,14.48
2019-06-01T00:46:15.916Z,14.50
2019-06-01T00:47:50.931Z,14.52
2019-06-01T00:49:26.334Z,14.44
2019-06-01T00:51:00.965Z,14.51
2019-06-01T00:52:37.401Z,14.39
2019-06-01T00:54:12.071Z,14.44
2019-06-01T00:55:49.447Z,14.42
2019-06-01T00:57:24.224Z,14.45
2019-06-01T00:58:59.452Z,14.40
2019-06-01T01:00:43.194Z,14.36
2019-06-01T01:02:11.115Z,14.35
2019-06-01T01:03:46.067Z,14.38
2019-06-01T01:05:22.264Z,14.32
2019-06-01T01:06:56.933Z,14.34
2019-06-01T01:08:32.179Z,14.35
2019-06-01T01:10:07.389Z,14.32
2019-06-01T01:11:42.624Z,14.34
2019-06-01T01:13:19.700Z,14.35
2019-06-01T01:14:55.399Z,14.34
2019-06-01T01:16:30.100Z,14.28
2019-06-01T01:18:06.305Z,14.25
2019-06-01T01:19:40.938Z,14.28
2019-06-01T01:21:16.292Z,14.30
2019-06-01T01:22:52.157Z,14.29
2019-06-01T01:24:28.700Z,14.29
2019-06-01T01:26:03.361Z,14.24
2019-06-01T01:27:38.598Z,14.20
2019-06-01T01:29:13.253Z,14.17
2019-06-01T01:31:05.079Z,14.18
2019-06-01T01:32:24.846Z,14.14
2019-06-01T01:34:00.134Z,14.11
2019-06-01T01:35:34.817Z,14.12
2019-06-01T01:37:15.425Z,14.09
2019-06-01T01:38:52.287Z,14.10
2019-06-01T01:40:30.107Z,14.03
2019-06-01T01:42:05.385Z,14.06
2019-06-01T01:43:40.051Z,14.08
2019-06-01T01:45:15.491Z,14.02
2019-06-01T01:46:50.717Z,14.04
2019-06-01T01:48:26.084Z,13.98
2019-06-01T01:50:00.738Z,13.99
2019-06-01T01:51:35.973Z,13.94
2019-06-01T01:53:10.630Z,13.92
2019-06-01T01:54:45.925Z,13.89
2019-06-01T01:56:20.572Z,13.86
2019-06-01T01:57:55.892Z,13.86
2019-06-01T01:59:30.565Z,13.81
2019-06-01T02:01:21.341Z,13.84
2019-06-01T02:02:42.257Z,13.85
2019-06-01T02:04:17.579Z,13.81
2019-06-01T02:05:52.933Z,13.75
2019-06-01T02:07:28.291Z,13.73
2019-06-01T02:09:03.040Z,13.72
2019-06-01T02:10:40.177Z,13.69
2019-06-01T02:12:14.833Z,13.67
2019-06-01T02:13:51.481Z,13.63
2019-06-01T02:15:26.282Z,13.61
2019-06-01T02:17:02.494Z,13.61
2019-06-01T02:18:37.403Z,13.64
2019-06-01T02:20:12.824Z,13.63
2019-06-01T02:21:47.467Z,13.60
2019-06-01T02:23:22.691Z,13.58
2019-06-01T02:24:57.839Z,13.58
2019-06-01T02:26:33.167Z,13.54
2019-06-01T02:28:07.898Z,13.49
2019-06-01T02:29:43.209Z,13.46
2019-06-01T02:31:17.883Z,13.44
2019-06-01T02:32:53.867Z,13.45
2019-06-01T02:34:28.633Z,13.42
2019-06-01T02:36:05.263Z,13.42
2019-06-01T02:37:40.240Z,13.39
2019-06-01T02:39:15.850Z,13.40
2019-06-01T02:40:51.113Z,13.41
2019-06-01T02:42:26.378Z,13.39
2019-06-01T02:44:01.698Z,13.36
2019-06-01T02:45:37.449Z,13.35
2019-06-01T02:47:12.103Z,13.28
2019-06-01T02:48:47.354Z,13.31
2019-06-01T02:50:22.099Z,13.28
2019-06-01T02:51:57.329Z,13.28
2019-06-01T02:53:32.174Z,13.22
2019-06-01T02:55:07.888Z,13.25
2019-06-01T02:56:42.546Z,13.24
2019-06-01T02:58:17.905Z,13.24
2019-06-01T02:59:52.573Z,13.19
2019-06-01T03:01:34.708Z,13.19
2019-06-01T03:03:10.016Z,13.21
2019-06-01T03:04:44.678Z,13.20
2019-06-01T03:06:20.152Z,13.17
2019-06-01T03:07:55.203Z,13.10
2019-06-01T03:09:31.230Z,13.13
2019-06-01T03:11:06.565Z,13.16
2019-06-01T03:12:45.417Z,13.11
2019-06-01T03:14:21.334Z,13.15
2019-06-01T03:15:58.390Z,13.11
2019-06-01T03:17:33.055Z,13.11
2019-06-01T03:19:08.365Z,13.13
2019-06-01T03:20:44.687Z,13.14
2019-06-01T03:22:21.111Z,13.19
2019-06-01T03:23:57.284Z,13.19
2019-06-01T03:25:32.893Z,13.17
2019-06-01T03:27:08.264Z,13.15
2019-06-01T03:28:45.000Z,13.20
2019-06-01T03:30:30.178Z,13.21
2019-06-01T03:32:24.191Z,13.19
2019-06-01T03:33:41.938Z,13.22
2019-06-01T03:35:17.204Z,13.22
2019-06-01T03:36:52.050Z,13.34
2019-06-01T03:38:27.304Z,13.35
2019-06-01T03:40:05.671Z,13.39
2019-06-01T03:41:38.992Z,13.41
2019-06-01T03:43:14.450Z,13.55
2019-06-01T03:44:49.704Z,13.55
2019-06-01T03:46:24.361Z,13.62
2019-06-01T03:48:00.519Z,13.71
2019-06-01T03:49:35.224Z,13.78
2019-06-01T03:51:10.464Z,13.81
2019-06-01T03:52:45.134Z,13.87
2019-06-01T03:54:21.361Z,13.95
2019-06-01T03:55:56.046Z,14.02
2019-06-01T03:57:31.286Z,14.09
2019-06-01T03:59:07.151Z,14.12
2019-06-01T04:00:42.555Z,14.23
2019-06-01T04:02:32.251Z,14.34
2019-06-01T04:03:55.461Z,14.50
2019-06-01T04:05:30.140Z,14.50
2019-06-01T04:07:06.420Z,14.57
2019-06-01T04:08:41.009Z,14.70
2019-06-01T04:10:16.260Z,14.77
2019-06-01T04:11:52.368Z,14.94
2019-06-01T04:13:27.672Z,14.99
2019-06-01T04:15:08.384Z,15.18
2019-06-01T04:16:42.736Z,15.38
2019-06-01T04:18:17.463Z,15.40
2019-06-01T04:19:52.701Z,15.47
2019-06-01T04:21:27.360Z,15.43
2019-06-01T04:23:04.473Z,15.34
2019-06-01T04:24:38.985Z,15.57
2019-06-01T04:26:14.235Z,15.71
2019-06-01T04:27:48.873Z,16.11
2019-06-01T04:29:24.146Z,16.14
2019-06-01T04:30:58.806Z,16.62
2019-06-01T04:32:48.974Z,16.48
2019-06-01T04:34:11.026Z,16.50
2019-06-01T04:35:46.434Z,16.53
2019-06-01T04:37:21.099Z,16.77
2019-06-01T04:38:56.342Z,16.82
2019-06-01T04:40:30.983Z,17.15
2019-06-01T04:42:07.624Z,17.30
2019-06-01T04:43:42.359Z,17.12
2019-06-01T04:45:17.858Z,17.01
2019-06-01T04:46:52.501Z,17.01
2019-06-01T04:48:27.762Z,17.34
2019-06-01T04:50:02.412Z,20.42
2019-06-01T04:51:38.703Z,20.42
2019-06-01T04:53:13.531Z,22.26
2019-06-01T04:54:48.866Z,22.27
2019-06-01T04:56:23.511Z,21.52
2019-06-01T04:57:58.821Z,22.35
2019-06-01T04:59:33.474Z,24.25
2019-06-01T05:01:09.045Z,24.86
2019-06-01T05:02:43.838Z,24.86
2019-06-01T05:04:20.234Z,25.24
2019-06-01T05:05:54.949Z,26.96
2019-06-01T05:07:30.168Z,27.90
2019-06-01T05:09:07.633Z,27.78
2019-06-01T05:10:43.931Z,28.71
2019-06-01T05:12:18.620Z,29.55
2019-06-01T05:13:53.862Z,30.18
2019-06-01T05:15:28.503Z,29.20
2019-06-01T05:17:03.777Z,28.96
2019-06-01T05:18:38.414Z,31.16
2019-06-01T05:20:14.756Z,30.61
2019-06-01T05:21:49.480Z,30.11
2019-06-01T05:23:24.721Z,30.25
2019-06-01T05:24:59.392Z,30.50
2019-06-01T05:26:34.628Z,28.89
2019-06-01T05:28:09.373Z,29.71
2019-06-01T05:29:45.751Z,29.41
2019-06-01T05:31:25.095Z,31.77
2019-06-01T05:32:57.458Z,32.48
2019-06-01T05:34:32.117Z,32.30
2019-06-01T05:36:08.009Z,31.06
2019-06-01T05:37:42.791Z,30.26
2019-06-01T05:39:18.783Z,31.30
2019-06-01T05:40:53.557Z,30.52
2019-06-01T05:42:28.816Z,32.33
2019-06-01T05:44:05.422Z,29.94
2019-06-01T05:45:40.666Z,31.35
2019-06-01T05:47:16.243Z,31.92
2019-06-01T05:48:52.673Z,31.65
2019-06-01T05:50:27.277Z,33.73
2019-06-01T05:52:02.514Z,33.87
2019-06-01T05:53:37.207Z,33.74
2019-06-01T05:55:12.936Z,34.30
2019-06-01T05:56:47.630Z,35.37
2019-06-01T05:58:22.869Z,34.25
2019-06-01T05:59:57.534Z,34.71
2019-06-01T06:01:32.754Z,33.84
2019-06-01T06:03:07.529Z,34.89
2019-06-01T06:04:42.767Z,34.86
2019-06-01T06:06:17.753Z,36.41
2019-06-01T06:07:53.036Z,34.68
2019-06-01T06:09:27.741Z,34.77
2019-06-01T06:11:02.997Z,33.75
2019-06-01T06:12:37.824Z,36.60
2019-06-01T06:14:13.390Z,34.89
2019-06-01T06:15:49.014Z,35.57
2019-06-01T06:17:24.532Z,36.07
2019-06-01T06:18:59.321Z,35.62
2019-06-01T06:20:34.609Z,37.05
2019-06-01T06:22:09.288Z,34.59
2019-06-01T06:23:45.592Z,35.08
2019-06-01T06:25:20.347Z,32.65
2019-06-01T06:26:55.568Z,33.45
2019-06-01T06:28:30.293Z,35.66
2019-06-01T06:30:06.703Z,35.86
2019-06-01T06:31:41.336Z,35.80
2019-06-01T06:33:17.346Z,35.90
2019-06-01T06:34:52.088Z,37.63
2019-06-01T06:36:27.349Z,37.25
2019-06-01T06:38:02.088Z,40.16
2019-06-01T06:39:37.315Z,40.17
2019-06-01T06:41:12.039Z,37.11
2019-06-01T06:42:47.379Z,38.79
2019-06-01T06:44:22.652Z,38.97
2019-06-01T06:45:57.989Z,39.18
2019-06-01T06:47:32.742Z,40.39
2019-06-01T06:49:09.987Z,39.58
2019-06-01T06:50:44.310Z,38.45
2019-06-01T06:52:19.599Z,37.20
2019-06-01T06:53:54.222Z,38.63
2019-06-01T06:55:29.450Z,39.95
2019-06-01T06:57:04.178Z,39.73
2019-06-01T06:58:39.395Z,42.12
2019-06-01T07:00:14.498Z,38.98
2019-06-01T07:01:49.743Z,38.91
2019-06-01T07:03:25.182Z,38.44
2019-06-01T07:05:00.482Z,40.83
2019-06-01T07:06:35.267Z,41.99
2019-06-01T07:08:13.132Z,38.09
2019-06-01T07:09:47.759Z,39.18
2019-06-01T07:11:23.439Z,36.73
2019-06-01T07:12:58.202Z,36.46
2019-06-01T07:14:33.627Z,38.45
2019-06-01T07:16:08.279Z,35.83
2019-06-01T07:17:43.517Z,33.47
2019-06-01T07:19:19.352Z,34.15
2019-06-01T07:20:54.825Z,33.84
2019-06-01T07:22:29.589Z,33.18
2019-06-01T07:24:04.995Z,34.62
2019-06-01T07:25:39.668Z,32.24
2019-06-01T07:27:14.944Z,30.06
2019-06-01T07:28:49.553Z,30.68
2019-06-01T07:30:24.810Z,30.82
2019-06-01T07:31:59.453Z,29.39
2019-06-01T07:33:34.742Z,28.60
2019-06-01T07:35:09.421Z,28.81
2019-06-01T07:36:44.733Z,31.63
2019-06-01T07:38:20.248Z,34.49
2019-06-01T07:39:55.501Z,36.79
2019-06-01T07:41:30.190Z,38.10
2019-06-01T07:43:05.413Z,36.94
2019-06-01T07:44:40.061Z,38.68
2019-06-01T07:46:15.286Z,38.18
2019-06-01T07:47:49.957Z,34.68
2019-06-01T07:49:25.200Z,36.53
2019-06-01T07:50:59.841Z,38.01
2019-06-01T07:52:35.135Z,39.59
2019-06-01T07:54:09.886Z,36.85
2019-06-01T07:55:45.206Z,37.26
2019-06-01T07:57:19.852Z,34.06
2019-06-01T07:58:55.049Z,35.21
2019-06-01T08:00:33.053Z,37.39
2019-06-01T08:02:09.431Z,38.43
2019-06-01T08:03:44.049Z,32.59
2019-06-01T08:05:19.722Z,34.93
2019-06-01T08:06:54.429Z,37.83
2019-06-01T08:08:40.723Z,32.34
2019-06-01T08:10:17.799Z,34.92
2019-06-01T08:11:52.463Z,38.29
2019-06-01T08:13:32.241Z,39.31
2019-06-01T08:15:04.808Z,38.65
2019-06-01T08:16:40.010Z,39.65
2019-06-01T08:18:14.663Z,39.90
2019-06-01T08:19:51.857Z,37.85
2019-06-01T08:21:26.247Z,40.59
2019-06-01T08:23:01.470Z,36.63
2019-06-01T08:24:36.166Z,34.79
2019-06-01T08:26:11.393Z,38.28
2019-06-01T08:27:46.045Z,38.84
2019-06-01T08:29:22.601Z,39.18
2019-06-01T08:30:57.420Z,41.65
2019-06-01T08:32:32.941Z,34.80
2019-06-01T08:34:07.772Z,35.11
2019-06-01T08:35:43.070Z,31.33
2019-06-01T08:37:17.726Z,30.80
2019-06-01T08:38:52.974Z,31.65
2019-06-01T08:40:27.667Z,30.06
2019-06-01T08:42:02.998Z,30.20
2019-06-01T08:43:38.348Z,30.51
2019-06-01T08:45:14.172Z,28.18
2019-06-01T08:46:48.835Z,27.47
2019-06-01T08:48:25.558Z,32.66
2019-06-01T08:50:00.418Z,33.94
2019-06-01T08:51:35.656Z,34.86
2019-06-01T08:53:10.293Z,34.04
2019-06-01T08:54:45.515Z,32.92
2019-06-01T08:56:21.939Z,31.37
2019-06-01T08:57:57.081Z,31.76
2019-06-01T08:59:32.580Z,30.40
2019-06-01T09:01:07.941Z,30.85
2019-06-01T09:02:42.608Z,32.75
2019-06-01T09:04:17.840Z,30.24
2019-06-01T09:05:52.570Z,31.08
2019-06-01T09:07:29.013Z,30.20
2019-06-01T09:09:04.690Z,31.93
2019-06-01T09:10:39.920Z,32.44
2019-06-01T09:12:14.629Z,32.46
2019-06-01T09:13:52.298Z,31.04
2019-06-01T09:15:27.578Z,30.50
2019-06-01T09:17:03.002Z,31.53
2019-06-01T09:18:37.663Z,29.51
2019-06-01T09:20:13.240Z,30.97
2019-06-01T09:21:47.899Z,30.09
2019-06-01T09:23:23.135Z,30.90
2019-06-01T09:24:57.884Z,30.78
2019-06-01T09:26:34.165Z,30.09
2019-06-01T09:28:11.850Z,31.68
2019-06-01T09:29:48.157Z,32.27
2019-06-01T09:31:22.784Z,31.43
2019-06-01T09:32:59.161Z,32.33
2019-06-01T09:34:34.509Z,30.89
2019-06-01T09:36:09.869Z,29.93
2019-06-01T09:37:45.850Z,29.77
2019-06-01T09:39:21.308Z,30.00
2019-06-01T09:40:56.028Z,30.40
2019-06-01T09:42:33.262Z,29.55
2019-06-01T09:44:08.015Z,30.16
2019-06-01T09:45:43.316Z,28.90
2019-06-01T09:47:18.077Z,30.59
2019-06-01T09:48:53.335Z,30.06
2019-06-01T09:50:29.178Z,30.60
2019-06-01T09:52:04.510Z,29.25
2019-06-01T09:53:39.242Z,30.93
2019-06-01T09:55:14.996Z,29.84
2019-06-01T09:56:49.694Z,29.13
2019-06-01T09:58:24.923Z,29.92
2019-06-01T09:59:59.582Z,30.22
2019-06-01T10:01:34.897Z,29.32
2019-06-01T10:03:09.519Z,30.03
2019-06-01T10:04:44.773Z,30.66
2019-06-01T10:06:19.390Z,30.76
2019-06-01T10:07:54.646Z,31.33
2019-06-01T10:09:29.532Z,31.42
2019-06-01T10:11:04.913Z,30.98
2019-06-01T10:12:39.563Z,31.58
2019-06-01T10:14:14.812Z,30.14
2019-06-01T10:15:49.537Z,30.16
2019-06-01T10:17:24.810Z,29.34
2019-06-01T10:18:59.534Z,29.93
2019-06-01T10:20:34.876Z,29.64
2019-06-01T10:22:09.586Z,30.46
2019-06-01T10:23:48.962Z,30.33
2019-06-01T10:25:21.334Z,30.49
2019-06-01T10:26:56.553Z,30.57
2019-06-01T10:28:31.684Z,29.16
2019-06-01T10:30:07.432Z,29.09
2019-06-01T10:31:43.176Z,28.26
2019-06-01T10:33:18.411Z,27.89
2019-06-01T10:34:53.163Z,29.33
2019-06-01T10:36:28.420Z,28.46
2019-06-01T10:38:03.045Z,29.32
2019-06-01T10:39:39.426Z,29.15
2019-06-01T10:41:14.171Z,29.09
2019-06-01T10:42:49.419Z,29.00
2019-06-01T10:44:24.065Z,29.31
2019-06-01T10:45:59.309Z,29.23
2019-06-01T10:47:33.969Z,28.84
2019-06-01T10:49:09.263Z,28.79
2019-06-01T10:50:43.943Z,29.96
2019-06-01T10:52:19.188Z,29.52
2019-06-01T10:53:53.897Z,29.50
2019-06-01T10:55:29.130Z,30.03
2019-06-01T10:57:04.173Z,29.94
2019-06-01T10:58:56.684Z,28.69
2019-06-01T11:00:16.513Z,29.17
2019-06-01T11:01:51.821Z,29.24
2019-06-01T11:03:26.476Z,29.73
2019-06-01T11:05:01.723Z,29.31
2019-06-01T11:06:42.512Z,29.11
2019-06-01T11:08:13.271Z,29.33
2019-06-01T11:09:48.017Z,29.45
2019-06-01T11:11:24.721Z,28.86
2019-06-01T11:12:59.353Z,28.93
2019-06-01T11:14:34.839Z,29.49
2019-06-01T11:16:10.614Z,29.77
2019-06-01T11:17:45.900Z,29.09
2019-06-01T11:19:20.536Z,28.90
2019-06-01T11:20:55.828Z,28.31
2019-06-01T11:22:30.575Z,28.10
2019-06-01T11:24:06.150Z,27.96
2019-06-01T11:25:41.638Z,27.95
2019-06-01T11:27:17.053Z,27.90
2019-06-01T11:28:51.953Z,27.72
2019-06-01T11:30:27.337Z,28.21
2019-06-01T11:32:02.017Z,27.08
2019-06-01T11:33:38.315Z,27.47
2019-06-01T11:35:13.050Z,27.29
2019-06-01T11:37:04.871Z,27.45
2019-06-01T11:38:25.680Z,27.32
2019-06-01T11:40:00.934Z,27.53
2019-06-01T11:41:36.393Z,27.80
2019-06-01T11:43:11.650Z,27.87
2019-06-01T11:44:46.377Z,27.92
2019-06-01T11:46:21.661Z,27.41
2019-06-01T11:47:56.298Z,27.47
2019-06-01T11:49:31.548Z,27.00
2019-06-01T11:51:06.248Z,27.00
2019-06-01T11:52:43.229Z,27.32
2019-06-01T11:54:18.087Z,27.28
2019-06-01T11:55:53.615Z,26.80
2019-06-01T11:57:28.261Z,26.90
2019-06-01T11:59:03.487Z,27.12
2019-06-01T12:00:39.546Z,27.12
2019-06-01T12:02:15.245Z,26.69
2019-06-01T12:03:49.905Z,26.80
2019-06-01T12:05:25.216Z,26.86
2019-06-01T12:07:16.206Z,26.86
2019-06-01T12:08:38.038Z,26.71
2019-06-01T12:10:13.364Z,26.59
2019-06-01T12:11:50.084Z,26.62
2019-06-01T12:13:25.169Z,26.42
2019-06-01T12:15:00.409Z,26.26
2019-06-01T12:16:36.324Z,26.51
2019-06-01T12:18:11.674Z,26.80
2019-06-01T12:19:46.918Z,26.27
2019-06-01T12:21:22.329Z,26.30
2019-06-01T12:22:57.002Z,26.43
2019-06-01T12:24:32.237Z,26.57
2019-06-01T12:26:06.910Z,26.44
2019-06-01T12:27:43.366Z,26.64
2019-06-01T12:29:18.383Z,26.49
2019-06-01T12:30:53.628Z,26.61
2019-06-01T12:32:28.257Z,26.54
2019-06-01T12:34:03.484Z,26.46
2019-06-01T12:35:39.885Z,26.45
2019-06-01T12:37:15.136Z,26.09
2019-06-01T12:38:53.161Z,25.97
2019-06-01T12:40:28.455Z,26.09
2019-06-01T12:42:03.082Z,26.19
2019-06-01T12:43:39.434Z,26.38
2019-06-01T12:45:22.454Z,26.35
2019-06-01T12:46:55.043Z,26.45
2019-06-01T12:48:29.676Z,26.62
2019-06-01T12:50:06.221Z,26.38
2019-06-01T12:51:42.374Z,26.19
2019-06-01T12:53:17.869Z,26.42
2019-06-01T12:54:53.098Z,26.38
2019-06-01T12:56:28.580Z,26.29
2019-06-01T12:58:03.355Z,26.21
2019-06-01T12:59:38.649Z,26.16
2019-06-01T13:01:13.301Z,25.92
2019-06-01T13:02:56.752Z,26.03
2019-06-01T13:04:25.467Z,26.22
2019-06-01T13:06:00.697Z,26.32
2019-06-01T13:07:50.980Z,26.24
2019-06-01T13:09:13.555Z,26.21
2019-06-01T13:10:48.210Z,26.53
2019-06-01T13:12:23.851Z,26.54
2019-06-01T13:13:58.557Z,26.38
2019-06-01T13:15:33.895Z,26.37
2019-06-01T13:17:08.526Z,26.48
2019-06-01T13:18:45.591Z,26.45
2019-06-01T13:20:21.407Z,26.45
2019-06-01T13:21:56.635Z,26.19
2019-06-01T13:23:31.267Z,26.28
2019-06-01T13:25:06.805Z,26.13
2019-06-01T13:26:41.846Z,26.20
2019-06-01T13:28:17.153Z,26.31
2019-06-01T13:29:52.253Z,26.40
2019-06-01T13:31:27.646Z,26.37
2019-06-01T13:33:02.288Z,26.29
2019-06-01T13:34:37.558Z,26.19
2019-06-01T13:36:13.174Z,26.25
2019-06-01T13:37:48.851Z,26.28
2019-06-01T13:39:23.627Z,26.36
2019-06-01T13:40:58.829Z,26.08
2019-06-01T13:42:33.517Z,26.18
2019-06-01T13:44:08.828Z,26.10
2019-06-01T13:45:43.445Z,26.15
2019-06-01T13:47:18.735Z,26.05
2019-06-01T13:48:54.286Z,25.91
2019-06-01T13:50:30.613Z,25.93
2019-06-01T13:52:05.429Z,26.09
2019-06-01T13:53:40.794Z,25.93
2019-06-01T13:55:15.417Z,25.83
2019-06-01T13:56:51.012Z,25.93
2019-06-01T13:58:25.778Z,25.94
2019-06-01T14:00:01.014Z,25.92
2019-06-01T14:01:35.654Z,26.02
2019-06-01T14:03:10.939Z,26.19
2019-06-01T14:04:45.586Z,26.09
2019-06-01T14:06:20.824Z,26.11
2019-06-01T14:07:55.790Z,26.07
2019-06-01T14:09:32.023Z,26.20
2019-06-01T14:11:06.715Z,26.13
2019-06-01T14:12:41.933Z,26.09
2019-06-01T14:14:16.597Z,26.12
2019-06-01T14:15:51.831Z,26.12
2019-06-01T14:17:26.480Z,26.08
2019-06-01T14:19:01.785Z,26.02
2019-06-01T14:20:36.552Z,26.10
2019-06-01T14:22:11.791Z,26.05
2019-06-01T14:23:47.638Z,25.92
2019-06-01T14:25:22.978Z,26.06
2019-06-01T14:26:57.602Z,26.07
2019-06-01T14:28:32.828Z,26.07
2019-06-01T14:30:08.135Z,26.06
2019-06-01T14:31:43.392Z,25.92
2019-06-01T14:33:18.109Z,25.92
2019-06-01T14:34:53.668Z,25.82
2019-06-01T14:36:29.572Z,25.70
2019-06-01T14:38:04.961Z,25.80
2019-06-01T14:39:39.618Z,25.77
2019-06-01T14:41:14.848Z,25.84
2019-06-01T14:42:49.586Z,25.87
2019-06-01T14:44:25.884Z,25.83
2019-06-01T14:46:00.559Z,25.75
2019-06-01T14:47:35.811Z,25.78
2019-06-01T14:49:10.537Z,25.71
2019-06-01T14:50:47.538Z,25.69
2019-06-01T14:52:22.216Z,25.87
2019-06-01T14:53:57.942Z,25.90
2019-06-01T14:55:32.673Z,25.82
2019-06-01T14:57:07.980Z,25.82
2019-06-01T14:58:42.648Z,25.47
2019-06-01T15:00:18.743Z,25.56
2019-06-01T15:01:56.171Z,25.59
2019-06-01T15:03:31.541Z,25.73
2019-06-01T15:05:08.112Z,25.58
2019-06-01T15:06:43.355Z,25.55
2019-06-01T15:08:18.082Z,25.55
2019-06-01T15:09:54.294Z,25.40
2019-06-01T15:11:29.036Z,25.36
2019-06-01T15:13:04.304Z,25.40
2019-06-01T15:14:38.971Z,25.45
2019-06-01T15:16:14.220Z,25.49
2019-06-01T15:17:49.318Z,25.33
2019-06-01T15:19:24.578Z,25.21
2019-06-01T15:20:59.298Z,25.28
2019-06-01T15:22:34.580Z,25.25
2019-06-01T15:24:09.214Z,25.27
2019-06-01T15:25:44.460Z,25.23
2019-06-01T15:27:19.172Z,25.28
2019-06-01T15:28:54.761Z,25.16
2019-06-01T15:30:29.489Z,25.23
2019-06-01T15:32:04.748Z,25.07
2019-06-01T15:33:39.402Z,25.19
2019-06-01T15:35:14.825Z,25.08
2019-06-01T15:36:49.500Z,25.08
2019-06-01T15:38:24.989Z,25.13
2019-06-01T15:39:59.799Z,25.14
2019-06-01T15:41:35.038Z,25.15
2019-06-01T15:43:09.682Z,25.23
2019-06-01T15:44:45.004Z,24.97
2019-06-01T15:46:19.646Z,24.93
2019-06-01T15:47:55.541Z,24.88
2019-06-01T15:49:30.330Z,24.81
2019-06-01T15:51:07.362Z,24.79
2019-06-01T15:52:42.265Z,24.75
2019-06-01T15:54:17.494Z,24.89
2019-06-01T15:55:52.275Z,25.03
2019-06-01T15:57:27.458Z,24.87
2019-06-01T15:59:02.831Z,24.85
2019-06-01T16:00:38.248Z,24.83
2019-06-01T16:02:13.044Z,24.85
2019-06-01T16:03:48.279Z,24.86
2019-06-01T16:05:22.915Z,24.90
2019-06-01T16:06:59.245Z,25.00
2019-06-01T16:08:34.030Z,24.93
2019-06-01T16:10:10.403Z,25.04
2019-06-01T16:11:45.035Z,25.01
2019-06-01T16:13:20.296Z,24.91
2019-06-01T16:14:55.389Z,24.94
2019-06-01T16:16:30.741Z,25.01
2019-06-01T16:18:05.621Z,24.99
2019-06-01T16:19:40.922Z,24.94
2019-06-01T16:21:15.785Z,24.93
2019-06-01T16:22:51.025Z,24.91
2019-06-01T16:24:25.692Z,24.92
2019-06-01T16:26:09.417Z,24.82
2019-06-01T16:27:37.395Z,24.69
2019-06-01T16:29:12.615Z,24.79
2019-06-01T16:30:47.264Z,24.65
2019-06-01T16:32:22.479Z,24.59
2019-06-01T16:33:57.115Z,24.69
2019-06-01T16:35:32.391Z,24.60
2019-06-01T16:37:07.051Z,24.65
2019-06-01T16:38:42.292Z,24.58
2019-06-01T16:40:17.217Z,24.58
2019-06-01T16:41:52.460Z,24.65
2019-06-01T16:43:27.095Z,24.57
2019-06-01T16:45:03.574Z,24.56
2019-06-01T16:46:39.922Z,24.47
2019-06-01T16:48:15.160Z,24.38
2019-06-01T16:49:49.820Z,24.35
2019-06-01T16:51:25.042Z,24.43
2019-06-01T16:53:00.211Z,24.33
2019-06-01T16:54:35.535Z,24.37
2019-06-01T16:56:11.371Z,24.40
2019-06-01T16:57:46.612Z,24.37
2019-06-01T16:59:21.562Z,24.39
2019-06-01T17:00:56.808Z,24.36
2019-06-01T17:02:31.518Z,24.28
2019-06-01T17:04:06.844Z,24.47
2019-06-01T17:05:42.652Z,24.45
2019-06-01T17:07:17.903Z,24.33
2019-06-01T17:08:52.551Z,24.37
2019-06-01T17:10:27.867Z,24.32
2019-06-01T17:12:03.150Z,24.29
2019-06-01T17:13:38.398Z,24.32
2019-06-01T17:15:13.836Z,24.27
2019-06-01T17:16:49.068Z,24.33
2019-06-01T17:18:23.707Z,24.27
2019-06-01T17:19:59.058Z,24.18
2019-06-01T17:21:33.701Z,24.10
2019-06-01T17:23:24.462Z,24.04
2019-06-01T17:24:45.300Z,23.98
2019-06-01T17:26:20.562Z,23.90
2019-06-01T17:27:55.519Z,23.99
2019-06-01T17:29:30.734Z,24.07
2019-06-01T17:31:08.543Z,24.07
2019-06-01T17:32:43.871Z,24.01
2019-06-01T17:34:18.528Z,24.00
2019-06-01T17:35:53.777Z,23.98
2019-06-01T17:37:28.573Z,23.93
2019-06-01T17:39:03.968Z,23.75
2019-06-01T17:40:42.752Z,23.65
2019-06-01T17:42:15.673Z,23.68
2019-06-01T17:43:50.371Z,23.71
2019-06-01T17:45:25.678Z,23.52
2019-06-01T17:47:00.395Z,23.47
2019-06-01T17:48:35.709Z,23.43
2019-06-01T17:50:11.781Z,23.65
2019-06-01T17:51:48.328Z,23.46
2019-06-01T17:53:22.982Z,23.41
2019-06-01T17:54:58.205Z,23.42
2019-06-01T17:56:32.865Z,23.50
2019-06-01T17:58:10.056Z,23.33
2019-06-01T17:59:44.908Z,23.20
2019-06-01T18:01:20.119Z,23.19
2019-06-01T18:02:54.838Z,23.28
2019-06-01T18:04:31.645Z,23.13
2019-06-01T18:06:06.302Z,23.14
2019-06-01T18:07:41.528Z,23.06
2019-06-01T18:09:16.259Z,23.05
2019-06-01T18:10:54.519Z,23.11
2019-06-01T18:12:29.021Z,22.93
2019-06-01T18:14:04.273Z,22.91
2019-06-01T18:15:43.371Z,22.76
2019-06-01T18:17:19.023Z,22.78
2019-06-01T18:18:53.757Z,22.82
2019-06-01T18:20:28.961Z,22.87
2019-06-01T18:22:04.629Z,22.70
2019-06-01T18:23:40.046Z,22.68
2019-06-01T18:25:22.735Z,22.60
2019-06-01T18:26:59.069Z,22.48
2019-06-01T18:28:33.691Z,22.55
2019-06-01T18:30:09.010Z,22.51
2019-06-01T18:31:43.727Z,22.40
2019-06-01T18:33:19.037Z,22.44
2019-06-01T18:34:53.692Z,22.35
2019-06-01T18:36:29.110Z,22.35
2019-06-01T18:38:03.977Z,22.27
2019-06-01T18:39:39.216Z,22.33
2019-06-01T18:41:18.372Z,22.30
2019-06-01T18:42:51.534Z,22.25
2019-06-01T18:44:26.191Z,22.19
2019-06-01T18:46:01.552Z,22.26
2019-06-01T18:47:36.290Z,22.22
2019-06-01T18:49:17.951Z,22.22
2019-06-01T18:50:50.347Z,22.22
2019-06-01T18:52:25.609Z,22.10
2019-06-01T18:54:00.293Z,22.09
2019-06-01T18:55:36.572Z,22.11
2019-06-01T18:57:19.217Z,22.02
2019-06-01T18:58:48.255Z,22.01
2019-06-01T19:00:22.945Z,21.96
2019-06-01T19:01:58.256Z,21.91
2019-06-01T19:03:32.945Z,21.87
2019-06-01T19:05:09.175Z,21.90
2019-06-01T19:06:44.337Z,21.83
2019-06-01T19:08:19.589Z,21.83
2019-06-01T19:09:54.244Z,21.77
2019-06-01T19:11:35.923Z,21.60
2019-06-01T19:13:06.120Z,21.65
2019-06-01T19:14:41.385Z,21.65
2019-06-01T19:16:17.693Z,21.64
2019-06-01T19:17:52.976Z,21.62
2019-06-01T19:19:27.623Z,21.56
2019-06-01T19:21:02.932Z,21.48
2019-06-01T19:22:37.600Z,21.50
2019-06-01T19:24:12.839Z,21.54
2019-06-01T19:25:47.575Z,21.43
2019-06-01T19:27:22.885Z,21.45
2019-06-01T19:28:57.532Z,21.38
2019-06-01T19:30:37.861Z,21.32
2019-06-01T19:32:12.905Z,21.34
2019-06-01T19:33:48.116Z,21.20
2019-06-01T19:35:23.067Z,21.10
2019-06-01T19:36:59.068Z,21.00
2019-06-01T19:38:34.246Z,20.93
2019-06-01T19:40:11.348Z,20.99
2019-06-01T19:41:46.256Z,20.91
2019-06-01T19:43:21.545Z,20.85
2019-06-01T19:44:56.197Z,20.76
2019-06-01T19:46:31.454Z,20.73
2019-06-01T19:48:08.236Z,20.73
2019-06-01T19:49:44.078Z,20.68
2019-06-01T19:51:18.914Z,20.58
2019-06-01T19:52:54.121Z,20.50
2019-06-01T19:54:28.767Z,20.45
2019-06-01T19:56:04.380Z,20.44
2019-06-01T19:57:39.040Z,20.41
2019-06-01T19:59:14.274Z,20.34
2019-06-01T20:00:49.033Z,20.25
2019-06-01T20:02:33.274Z,20.26
2019-06-01T20:04:00.575Z,20.27
2019-06-01T20:05:35.956Z,20.22
2019-06-01T20:07:11.068Z,20.18
2019-06-01T20:08:46.351Z,20.11
2019-06-01T20:10:21.011Z,20.13
2019-06-01T20:12:01.951Z,20.12
2019-06-01T20:13:32.576Z,20.11
2019-06-01T20:15:08.782Z,20.08
2019-06-01T20:16:43.475Z,20.09
2019-06-01T20:18:19.134Z,19.96
2019-06-01T20:19:53.940Z,19.85
2019-06-01T20:21:29.195Z,19.80
2019-06-01T20:23:03.839Z,19.74
2019-06-01T20:24:39.135Z,19.66
2019-06-01T20:26:13.799Z,19.62
2019-06-01T20:27:49.177Z,19.60